Time;durP1;ratioP1;P1;durP2;ratioP2;P2;SDS_P1;SDS_P2;PMS_P1;PMS_P2;Temp;Humidity;BMP_temperature;BMP_pressure;BME280_temperature;BME280_humidity;BME280_pressure;Samples;Min_cycle;Max_cycle;Signal;HPM_P1;HPM_P2
2023/03/04 00:01:18;;;;;;;18.40;2.45;;;;;;;;;;4904083;29;20116;-68
2023/03/04 00:03:44;;;;;;;16.67;2.67;;;;;;;;;;4883707;29;20052;-68
2023/03/04 00:06:10;;;;;;;20.20;2.83;;;;;;;;;;4899117;29;20451;-68
2023/03/04 00:08:37;;;;;;;15.98;2.38;;;;;;;;;;4899946;29;20083;-68
2023/03/04 00:11:03;;;;;;;21.90;3.10;;;;;;;;;;4900521;29;20095;-68
2023/03/04 00:13:29;;;;;;;15.30;2.00;;;;;;;;;;4882618;29;20775;-68
2023/03/04 00:15:55;;;;;;;25.13;2.80;;;;;;;;;;4898393;29;20051;-68
2023/03/04 00:18:21;;;;;;;15.25;2.95;;;;;;;;;;4899061;29;20070;-68
2023/03/04 00:20:49;;;;;;;15.15;2.22;;;;;;;;;;4899217;29;20047;-68
2023/03/04 00:23:15;;;;;;;18.50;2.85;;;;;;;;;;4901181;29;20052;-68
2023/03/04 00:25:42;;;;;;;13.02;2.50;;;;;;;;;;4899136;29;20115;-68
2023/03/04 00:28:08;;;;;;;19.08;2.83;;;;;;;;;;4901148;29;20468;-68
2023/03/04 00:30:34;;;;;;;20.35;2.72;;;;;;;;;;4913637;29;20143;-68
2023/03/04 00:33:00;;;;;;;17.42;2.83;;;;;;;;;;4920116;29;20075;-68
2023/03/04 00:35:26;;;;;;;16.95;2.38;;;;;;;;;;4917231;29;20119;-68
2023/03/04 00:37:52;;;;;;;18.63;2.55;;;;;;;;;;4918712;29;20345;-68
2023/03/04 00:40:19;;;;;;;13.32;2.47;;;;;;;;;;4908518;29;20051;-68
2023/03/04 00:42:45;;;;;;;24.38;2.85;;;;;;;;;;4917247;29;20048;-68
2023/03/04 00:45:11;;;;;;;24.08;2.70;;;;;;;;;;4903508;29;20043;-68
2023/03/04 00:47:37;;;;;;;21.77;3.35;;;;;;;;;;4916059;29;20047;-68
2023/03/04 00:50:03;;;;;;;18.13;2.70;;;;;;;;;;4916706;29;20060;-68
2023/03/04 00:52:30;;;;;;;19.67;2.75;;;;;;;;;;4917595;29;20123;-68
2023/03/04 00:54:56;;;;;;;18.85;2.50;;;;;;;;;;4901249;29;20070;-68
2023/03/04 00:57:22;;;;;;;23.70;4.05;;;;;;;;;;4915701;29;20269;-68
2023/03/04 00:59:48;;;;;;;21.42;2.60;;;;;;;;;;4921184;29;20051;-68
2023/03/04 01:02:14;;;;;;;15.93;2.92;;;;;;;;;;4902553;29;20043;-68
2023/03/04 01:04:40;;;;;;;13.20;2.15;;;;;;;;;;4905867;29;20056;-68
2023/03/04 01:07:07;;;;;;;15.57;2.00;;;;;;;;;;4917434;29;20559;-68
2023/03/04 01:09:33;;;;;;;13.30;3.50;;;;;;;;;;4914804;29;20047;-67
2023/03/04 01:11:59;;;;;;;22.85;3.05;;;;;;;;;;4917423;29;20131;-67
2023/03/04 01:14:25;;;;;;;19.15;2.50;;;;;;;;;;4919084;29;20058;-67
2023/03/04 01:16:51;;;;;;;9.13;1.85;;;;;;;;;;4906209;29;20047;-67
2023/03/04 01:19:18;;;;;;;11.75;2.92;;;;;;;;;;4903059;29;20094;-67
2023/03/04 01:21:44;;;;;;;17.35;2.67;;;;;;;;;;4903653;29;20062;-67
2023/03/04 01:24:10;;;;;;;14.25;2.10;;;;;;;;;;4917025;29;20488;-67
2023/03/04 01:26:37;;;;;;;14.45;2.15;;;;;;;;;;4904571;29;20051;-67
2023/03/04 01:29:03;;;;;;;17.98;3.17;;;;;;;;;;4906409;29;20056;-67
2023/03/04 01:31:29;;;;;;;19.08;2.65;;;;;;;;;;4897574;29;20063;-67
2023/03/04 01:33:55;;;;;;;23.20;2.97;;;;;;;;;;4920425;29;20464;-67
2023/03/04 01:36:22;;;;;;;14.60;2.17;;;;;;;;;;4922010;29;21412;-67
2023/03/04 01:38:48;;;;;;;22.40;3.35;;;;;;;;;;4901645;29;20066;-67
2023/03/04 01:41:23;;;;;;;12.43;1.90;;;;;;;;;;4903202;29;20047;-67
2023/03/04 01:43:49;;;;;;;23.30;2.80;;;;;;;;;;4918166;29;20062;-67
2023/03/04 01:46:16;;;;;;;19.92;2.72;;;;;;;;;;4915979;29;20257;-67
2023/03/04 01:48:43;;;;;;;19.90;3.03;;;;;;;;;;4916131;28;20131;-67
2023/03/04 01:51:13;;;;;;;20.75;3.15;;;;;;;;;;4916607;29;20099;-67
2023/03/04 01:53:39;;;;;;;18.05;3.08;;;;;;;;;;4896821;29;20051;-67
2023/03/04 01:56:14;;;;;;;17.05;2.80;;;;;;;;;;4915989;29;20052;-67
2023/03/04 01:58:40;;;;;;;15.23;2.60;;;;;;;;;;4915524;29;20050;-67
2023/03/04 02:01:06;;;;;;;15.00;2.95;;;;;;;;;;4918437;29;20494;-67
2023/03/04 02:03:32;;;;;;;25.70;4.30;;;;;;;;;;4919101;29;20051;-67
2023/03/04 02:05:59;;;;;;;17.40;3.08;;;;;;;;;;4918288;29;20718;-67
2023/03/04 02:08:25;;;;;;;24.48;2.95;;;;;;;;;;4917517;29;20135;-67
2023/03/04 02:10:51;;;;;;;15.18;2.63;;;;;;;;;;4916146;29;20056;-67
2023/03/04 02:13:18;;;;;;;19.58;2.72;;;;;;;;;;4912079;29;20106;-67
2023/03/04 02:15:45;;;;;;;17.70;3.33;;;;;;;;;;4901743;29;20484;-67
2023/03/04 02:18:14;;;;;;;13.52;2.08;;;;;;;;;;4905754;29;20102;-67
2023/03/04 02:20:50;;;;;;;16.15;4.00;;;;;;;;;;4918560;29;20450;-67
2023/03/04 02:23:21;;;;;;;13.10;2.13;;;;;;;;;;4916793;29;20040;-67
2023/03/04 02:25:50;;;;;;;18.67;2.28;;;;;;;;;;4915036;29;21693;-67
2023/03/04 02:28:16;;;;;;;19.00;2.60;;;;;;;;;;4915882;29;20096;-67
2023/03/04 02:30:42;;;;;;;17.67;2.45;;;;;;;;;;4918034;29;20234;-67
2023/03/04 02:33:13;;;;;;;12.90;2.25;;;;;;;;;;4900539;29;20605;-67
2023/03/04 02:35:39;;;;;;;15.27;2.17;;;;;;;;;;4921568;29;20455;-67
2023/03/04 02:38:06;;;;;;;17.63;2.40;;;;;;;;;;4919613;29;20048;-67
2023/03/04 02:40:33;;;;;;;14.70;2.20;;;;;;;;;;4898542;29;20103;-67
2023/03/04 02:43:00;;;;;;;29.60;3.33;;;;;;;;;;4916304;29;20055;-67
2023/03/04 02:45:30;;;;;;;23.65;3.17;;;;;;;;;;4918876;29;20091;-67
2023/03/04 02:47:56;;;;;;;17.48;2.88;;;;;;;;;;4916222;29;20779;-67
2023/03/04 02:50:23;;;;;;;19.02;2.83;;;;;;;;;;4917385;29;20047;-67
2023/03/04 02:52:49;;;;;;;8.77;2.58;;;;;;;;;;4918674;29;20052;-67
2023/03/04 02:55:15;;;;;;;16.70;2.45;;;;;;;;;;4915382;29;20048;-67
2023/03/04 02:57:41;;;;;;;20.63;2.70;;;;;;;;;;4919716;29;20047;-67
2023/03/04 03:00:08;;;;;;;21.15;3.28;;;;;;;;;;4916655;29;20104;-67
2023/03/04 03:02:34;;;;;;;21.08;3.15;;;;;;;;;;4903090;29;20055;-69
2023/03/04 03:05:00;;;;;;;12.45;2.72;;;;;;;;;;4923732;29;20052;-67
2023/03/04 03:07:26;;;;;;;14.32;3.00;;;;;;;;;;4903749;29;21377;-67
2023/03/04 03:09:52;;;;;;;15.85;2.75;;;;;;;;;;4919880;29;20055;-67
2023/03/04 03:12:19;;;;;;;17.70;3.00;;;;;;;;;;4921277;29;20072;-67
2023/03/04 03:14:45;;;;;;;17.70;2.40;;;;;;;;;;4924168;29;20063;-67
2023/03/04 03:17:11;;;;;;;12.82;2.17;;;;;;;;;;4921667;29;20498;-67
2023/03/04 03:19:37;;;;;;;11.52;2.33;;;;;;;;;;4907456;29;20095;-67
2023/03/04 03:22:03;;;;;;;15.10;2.30;;;;;;;;;;4920382;29;20123;-68
2023/03/04 03:24:29;;;;;;;18.58;2.28;;;;;;;;;;4904617;29;20064;-67
2023/03/04 03:26:56;;;;;;;19.10;3.25;;;;;;;;;;4908309;29;20056;-67
2023/03/04 03:29:22;;;;;;;11.18;2.75;;;;;;;;;;4907088;29;20060;-67
2023/03/04 03:31:48;;;;;;;14.88;1.95;;;;;;;;;;4922397;29;20062;-68
2023/03/04 03:34:14;;;;;;;20.90;1.98;;;;;;;;;;4922582;29;20047;-68
2023/03/04 03:36:40;;;;;;;12.68;2.05;;;;;;;;;;4917046;29;20481;-67
2023/03/04 03:39:06;;;;;;;16.63;2.22;;;;;;;;;;4920617;29;20425;-68
2023/03/04 03:41:33;;;;;;;13.18;1.88;;;;;;;;;;4921925;29;20056;-68
2023/03/04 03:43:59;;;;;;;13.02;1.60;;;;;;;;;;4920786;29;20044;-68
2023/03/04 03:46:26;;;;;;;12.73;1.98;;;;;;;;;;4918742;29;20043;-68
2023/03/04 03:48:52;;;;;;;12.73;1.92;;;;;;;;;;4919551;29;20131;-68
2023/03/04 03:51:18;;;;;;;14.25;1.75;;;;;;;;;;4917923;29;20066;-68
2023/03/04 03:53:44;;;;;;;15.95;2.08;;;;;;;;;;4905132;29;20048;-68
2023/03/04 03:56:10;;;;;;;10.10;1.45;;;;;;;;;;4920168;29;20656;-68
2023/03/04 03:58:37;;;;;;;15.32;2.15;;;;;;;;;;4919083;29;20451;-68
2023/03/04 04:01:03;;;;;;;10.82;1.50;;;;;;;;;;4917810;29;20052;-68
2023/03/04 04:03:29;;;;;;;8.07;1.33;;;;;;;;;;4918324;29;20043;-67
2023/03/04 04:05:56;;;;;;;10.82;1.83;;;;;;;;;;4919586;29;21305;-68
2023/03/04 04:08:22;;;;;;;11.18;2.08;;;;;;;;;;4920263;29;20116;-67
2023/03/04 04:10:48;;;;;;;11.00;1.23;;;;;;;;;;4919724;29;20043;-67
2023/03/04 04:13:14;;;;;;;14.52;2.85;;;;;;;;;;4920249;29;20055;-67
2023/03/04 04:15:41;;;;;;;13.65;1.75;;;;;;;;;;4922885;29;20044;-67
2023/03/04 04:18:07;;;;;;;10.77;1.70;;;;;;;;;;4919942;29;20339;-67
2023/03/04 04:20:34;;;;;;;7.70;1.83;;;;;;;;;;4918466;29;20467;-67
2023/03/04 04:23:00;;;;;;;17.67;1.85;;;;;;;;;;4919884;29;20047;-67
2023/03/04 04:25:26;;;;;;;8.18;1.20;;;;;;;;;;4918701;29;20051;-68
2023/03/04 04:27:52;;;;;;;8.65;1.45;;;;;;;;;;4917781;29;20130;-67
2023/03/04 04:30:19;;;;;;;7.60;1.15;;;;;;;;;;4920141;29;20047;-67
2023/03/04 04:32:45;;;;;;;9.05;1.20;;;;;;;;;;4918338;29;20721;-68
2023/03/04 04:35:11;;;;;;;9.68;1.48;;;;;;;;;;4900959;29;20048;-68
2023/03/04 04:37:37;;;;;;;12.75;1.80;;;;;;;;;;4901705;29;20039;-69
2023/03/04 04:40:04;;;;;;;12.45;1.40;;;;;;;;;;4917576;29;20052;-67
2023/03/04 04:42:30;;;;;;;11.95;1.58;;;;;;;;;;4916758;29;20044;-67
2023/03/04 04:44:56;;;;;;;11.02;1.20;;;;;;;;;;4901179;29;20052;-68
2023/03/04 04:47:22;;;;;;;12.07;1.65;;;;;;;;;;4918508;29;20103;-68
2023/03/04 04:49:48;;;;;;;12.80;1.63;;;;;;;;;;4917623;29;20523;-68
2023/03/04 04:52:15;;;;;;;10.15;1.20;;;;;;;;;;4918895;29;20043;-68
2023/03/04 04:54:41;;;;;;;8.95;1.25;;;;;;;;;;4902703;29;20039;-68
2023/03/04 04:57:07;;;;;;;4.97;1.02;;;;;;;;;;4900480;29;20047;-68
2023/03/04 04:59:33;;;;;;;14.75;2.28;;;;;;;;;;4920311;29;20051;-68
2023/03/04 05:01:59;;;;;;;13.45;1.83;;;;;;;;;;4918603;29;20076;-68
2023/03/04 05:04:25;;;;;;;10.05;1.50;;;;;;;;;;4900223;29;20048;-68
2023/03/04 05:06:52;;;;;;;15.65;1.45;;;;;;;;;;4917522;29;21443;-68
2023/03/04 05:09:19;;;;;;;9.43;1.25;;;;;;;;;;4901994;29;20058;-68
2023/03/04 05:11:45;;;;;;;15.30;1.73;;;;;;;;;;4917827;29;20696;-68
2023/03/04 05:14:12;;;;;;;12.95;1.75;;;;;;;;;;4902299;29;20058;-68
2023/03/04 05:16:38;;;;;;;11.65;1.58;;;;;;;;;;4901189;29;20040;-68
2023/03/04 05:19:04;;;;;;;8.77;1.50;;;;;;;;;;4917047;29;20048;-68
2023/03/04 05:21:30;;;;;;;12.13;1.90;;;;;;;;;;4920220;29;20043;-68
2023/03/04 05:23:56;;;;;;;16.55;2.17;;;;;;;;;;4916045;29;20562;-68
2023/03/04 05:26:22;;;;;;;10.43;1.80;;;;;;;;;;4904199;29;20056;-68
2023/03/04 05:28:49;;;;;;;19.10;3.03;;;;;;;;;;4918619;29;20054;-68
2023/03/04 05:31:16;;;;;;;14.48;2.10;;;;;;;;;;4920072;29;20070;-68
2023/03/04 05:33:43;;;;;;;15.15;1.88;;;;;;;;;;4918290;29;20044;-68
2023/03/04 05:36:10;;;;;;;9.15;1.42;;;;;;;;;;4919082;29;20095;-68
2023/03/04 05:38:36;;;;;;;8.20;1.52;;;;;;;;;;4883843;29;20079;-68
2023/03/04 05:41:04;;;;;;;9.90;1.27;;;;;;;;;;4916702;29;20055;-68
2023/03/04 05:43:33;;;;;;;18.38;2.53;;;;;;;;;;4917301;29;20044;-68
2023/03/04 05:45:59;;;;;;;15.23;2.17;;;;;;;;;;4918329;29;20104;-67
2023/03/04 05:48:27;;;;;;;11.00;1.75;;;;;;;;;;4919844;29;20059;-68
2023/03/04 05:50:53;;;;;;;11.40;1.30;;;;;;;;;;4917724;29;20109;-68
2023/03/04 05:53:20;;;;;;;10.50;1.75;;;;;;;;;;4915213;29;20483;-68
2023/03/04 05:55:46;;;;;;;16.45;2.20;;;;;;;;;;4918656;29;20047;-68
2023/03/04 05:58:13;;;;;;;7.40;1.40;;;;;;;;;;4916058;29;20226;-68
2023/03/04 06:00:39;;;;;;;10.48;1.27;;;;;;;;;;4917080;29;20122;-68
2023/03/04 06:03:05;;;;;;;14.00;1.73;;;;;;;;;;4919872;29;20052;-69
2023/03/04 06:05:31;;;;;;;12.65;1.85;;;;;;;;;;4917429;29;20055;-69
2023/03/04 06:07:57;;;;;;;13.00;1.60;;;;;;;;;;4917760;29;20357;-68
2023/03/04 06:10:24;;;;;;;10.13;1.77;;;;;;;;;;4903998;29;20527;-68
2023/03/04 06:12:50;;;;;;;15.63;1.95;;;;;;;;;;4917779;29;20047;-68
2023/03/04 06:15:16;;;;;;;16.25;2.53;;;;;;;;;;4920317;29;20043;-68
2023/03/04 06:17:43;;;;;;;15.13;1.95;;;;;;;;;;4920979;29;20499;-68
2023/03/04 06:20:10;;;;;;;12.75;1.60;;;;;;;;;;4918213;29;20066;-66
2023/03/04 06:22:36;;;;;;;9.63;1.75;;;;;;;;;;4917298;29;20419;-68
2023/03/04 06:25:03;;;;;;;9.35;1.92;;;;;;;;;;4919011;29;20141;-68
2023/03/04 06:27:29;;;;;;;12.13;1.83;;;;;;;;;;4921110;29;20042;-67
2023/03/04 06:29:55;;;;;;;18.27;2.42;;;;;;;;;;4918144;29;20063;-67
2023/03/04 06:32:21;;;;;;;11.30;2.15;;;;;;;;;;4914323;29;20416;-68
2023/03/04 06:34:48;;;;;;;16.30;3.13;;;;;;;;;;4915808;28;20506;-67
2023/03/04 06:37:14;;;;;;;14.02;1.80;;;;;;;;;;4921616;29;20051;-68
2023/03/04 06:39:40;;;;;;;19.10;2.70;;;;;;;;;;4911046;29;20511;-68
2023/03/04 06:42:06;;;;;;;14.63;2.20;;;;;;;;;;4924434;29;20190;-67
2023/03/04 06:44:32;;;;;;;14.18;2.20;;;;;;;;;;4926079;29;20097;-68
2023/03/04 06:46:59;;;;;;;20.90;2.90;;;;;;;;;;4922683;29;20511;-68
2023/03/04 06:49:25;;;;;;;13.63;2.20;;;;;;;;;;4921819;29;20138;-68
2023/03/04 06:51:51;;;;;;;16.20;2.60;;;;;;;;;;4908291;29;20043;-68
2023/03/04 06:54:18;;;;;;;12.88;2.22;;;;;;;;;;4908807;29;20605;-67
2023/03/04 06:56:45;;;;;;;16.45;2.83;;;;;;;;;;4922776;29;20583;-68
2023/03/04 06:59:11;;;;;;;10.88;2.05;;;;;;;;;;4923499;29;20099;-68
2023/03/04 07:01:37;;;;;;;12.75;2.20;;;;;;;;;;4923785;29;20044;-68
2023/03/04 07:04:04;;;;;;;16.27;2.08;;;;;;;;;;4924751;29;20667;-68
2023/03/04 07:06:30;;;;;;;15.10;1.88;;;;;;;;;;4906467;29;20070;-68
2023/03/04 07:08:57;;;;;;;10.80;1.75;;;;;;;;;;4907080;29;20055;-67
2023/03/04 07:11:23;;;;;;;15.75;1.92;;;;;;;;;;4906888;29;20129;-67
2023/03/04 07:13:50;;;;;;;14.30;1.85;;;;;;;;;;4922134;29;20043;-67
2023/03/04 07:16:19;;;;;;;11.73;1.90;;;;;;;;;;4920177;29;20044;-67
2023/03/04 07:18:45;;;;;;;14.27;2.30;;;;;;;;;;4920637;29;20444;-67
2023/03/04 07:21:13;;;;;;;12.80;2.00;;;;;;;;;;4909431;29;20048;-67
2023/03/04 07:23:39;;;;;;;11.85;1.92;;;;;;;;;;4925732;29;20495;-67
2023/03/04 07:26:06;;;;;;;24.55;2.60;;;;;;;;;;4925317;29;20052;-67
2023/03/04 07:28:32;;;;;;;13.95;2.25;;;;;;;;;;4925906;29;20053;-67
2023/03/04 07:31:07;;;;;;;21.00;2.92;;;;;;;;;;4924643;29;20503;-68
2023/03/04 07:33:33;;;;;;;21.08;3.22;;;;;;;;;;4923284;29;20371;-68
2023/03/04 07:35:59;;;;;;;21.35;2.63;;;;;;;;;;4935633;28;20051;-67
2023/03/04 07:38:26;;;;;;;19.30;3.05;;;;;;;;;;4924613;29;20035;-67
2023/03/04 07:40:56;;;;;;;30.02;2.78;;;;;;;;;;4923430;29;20082;-68
2023/03/04 07:43:22;;;;;;;27.63;3.28;;;;;;;;;;4922334;28;20519;-68
2023/03/04 07:45:48;;;;;;;21.73;2.95;;;;;;;;;;4919847;29;20048;-68
2023/03/04 07:48:15;;;;;;;27.15;4.03;;;;;;;;;;4921475;29;20075;-68
2023/03/04 07:50:41;;;;;;;20.77;3.53;;;;;;;;;;4925484;29;20375;-68
2023/03/04 07:53:07;;;;;;;18.92;2.88;;;;;;;;;;4924074;29;20139;-68
2023/03/04 07:55:33;;;;;;;17.23;2.70;;;;;;;;;;4928355;29;20562;-67
2023/03/04 07:57:59;;;;;;;17.80;2.50;;;;;;;;;;4925270;29;20048;-67
2023/03/04 08:00:26;;;;;;;21.50;2.88;;;;;;;;;;4933405;28;20051;-67
2023/03/04 08:02:52;;;;;;;16.70;2.10;;;;;;;;;;4925069;29;20057;-68
2023/03/04 08:05:18;;;;;;;15.05;1.95;;;;;;;;;;4940448;28;20752;-68
2023/03/04 08:07:44;;;;;;;15.40;2.65;;;;;;;;;;4923070;29;20057;-68
2023/03/04 08:10:11;;;;;;;17.85;2.80;;;;;;;;;;4926188;29;20444;-68
2023/03/04 08:12:37;;;;;;;15.07;2.53;;;;;;;;;;4922532;29;20070;-73
2023/03/04 08:15:03;;;;;;;14.05;2.88;;;;;;;;;;4941484;28;20048;-69
2023/03/04 08:17:29;;;;;;;13.88;2.60;;;;;;;;;;4922002;29;20043;-68
2023/03/04 08:19:56;;;;;;;21.15;3.13;;;;;;;;;;4920947;29;20094;-67
2023/03/04 08:22:22;;;;;;;19.70;3.20;;;;;;;;;;4939147;28;20343;-79
2023/03/04 08:24:48;;;;;;;21.45;3.17;;;;;;;;;;4946107;28;20048;-83
2023/03/04 08:27:14;;;;;;;21.50;3.72;;;;;;;;;;4943806;29;20074;-86
2023/03/04 08:29:40;;;;;;;23.30;3.63;;;;;;;;;;4928727;29;20114;-70
2023/03/04 08:32:07;;;;;;;29.08;4.70;;;;;;;;;;4923714;29;20530;-70
2023/03/04 08:34:33;;;;;;;14.55;3.55;;;;;;;;;;4914660;29;20051;-68
2023/03/04 08:36:59;;;;;;;20.88;2.70;;;;;;;;;;4929785;29;20116;-68
2023/03/04 08:39:25;;;;;;;17.50;3.35;;;;;;;;;;4923090;29;20058;-69
2023/03/04 08:41:51;;;;;;;22.27;3.13;;;;;;;;;;4927760;29;20047;-68
2023/03/04 08:44:18;;;;;;;16.88;3.15;;;;;;;;;;4926895;29;20456;-69
2023/03/04 08:46:44;;;;;;;14.02;2.22;;;;;;;;;;4909509;29;20088;-68
2023/03/04 08:49:11;;;;;;;12.95;2.15;;;;;;;;;;4911971;29;20520;-68
2023/03/04 08:51:38;;;;;;;14.05;2.38;;;;;;;;;;4928796;29;20058;-68
2023/03/04 08:54:04;;;;;;;18.45;3.20;;;;;;;;;;4926645;29;20068;-67
2023/03/04 08:56:31;;;;;;;19.38;2.85;;;;;;;;;;4926856;29;20055;-69
2023/03/04 08:58:58;;;;;;;21.20;3.88;;;;;;;;;;4909754;29;20095;-68
2023/03/04 09:01:24;;;;;;;16.08;3.28;;;;;;;;;;4922147;29;20460;-68
2023/03/04 09:03:50;;;;;;;23.40;2.78;;;;;;;;;;4923595;29;20127;-70
2023/03/04 09:06:17;;;;;;;25.55;2.67;;;;;;;;;;4905153;29;20183;-74
2023/03/04 09:08:43;;;;;;;17.73;2.08;;;;;;;;;;4919202;29;20047;-74
2023/03/04 09:11:10;;;;;;;14.23;2.70;;;;;;;;;;4920666;29;20187;-75
2023/03/04 09:13:36;;;;;;;17.20;2.60;;;;;;;;;;4923935;29;20040;-77
2023/03/04 09:16:02;;;;;;;16.80;2.72;;;;;;;;;;4921667;29;20051;-81
2023/03/04 09:18:29;;;;;;;17.38;2.75;;;;;;;;;;4908731;29;20052;-82
2023/03/04 09:20:55;;;;;;;17.67;3.72;;;;;;;;;;4902152;29;20078;-84
2023/03/04 09:23:21;;;;;;;17.73;2.85;;;;;;;;;;4919585;29;20119;-85
2023/03/04 09:25:48;;;;;;;16.38;2.30;;;;;;;;;;4907314;29;20056;-81
2023/03/04 09:28:15;;;;;;;15.40;2.42;;;;;;;;;;4903442;29;20048;-84
2023/03/04 09:30:41;;;;;;;19.50;2.40;;;;;;;;;;4920699;29;20112;-83
2023/03/04 09:33:07;;;;;;;18.48;2.55;;;;;;;;;;4924752;29;20099;-81
2023/03/04 09:35:33;;;;;;;15.38;2.85;;;;;;;;;;4922463;29;20044;-82
2023/03/04 09:38:00;;;;;;;14.52;2.55;;;;;;;;;;4922873;29;20047;-78
2023/03/04 09:40:28;;;;;;;12.95;2.05;;;;;;;;;;4923203;29;20059;-78
2023/03/04 09:42:57;;;;;;;18.50;2.17;;;;;;;;;;4921499;29;20062;-75
2023/03/04 09:45:26;;;;;;;15.10;2.28;;;;;;;;;;4903824;29;20071;-76
2023/03/04 09:47:54;;;;;;;17.30;2.70;;;;;;;;;;4907581;29;20056;-77
2023/03/04 09:50:20;;;;;;;9.38;1.75;;;;;;;;;;4920170;29;20066;-76
2023/03/04 09:52:50;;;;;;;14.85;2.13;;;;;;;;;;4899417;29;20088;-77
2023/03/04 09:55:28;;;;;;;11.13;2.13;;;;;;;;;;4907129;29;20047;-76
2023/03/04 09:58:02;;;;;;;10.85;2.20;;;;;;;;;;4906412;29;20048;-77
2023/03/04 10:00:35;;;;;;;13.77;2.35;;;;;;;;;;4918886;29;20404;-76
2023/03/04 10:03:02;;;;;;;14.20;2.60;;;;;;;;;;4919808;29;20048;-77
2023/03/04 10:05:28;;;;;;;9.65;1.73;;;;;;;;;;4918678;29;20499;-75
2023/03/04 10:07:57;;;;;;;12.82;1.65;;;;;;;;;;4905731;29;20262;-75
2023/03/04 10:10:30;;;;;;;11.43;1.48;;;;;;;;;;4902874;29;20407;-77
2023/03/04 10:12:57;;;;;;;10.57;1.38;;;;;;;;;;4904542;29;20048;-77
2023/03/04 10:15:24;;;;;;;9.05;1.73;;;;;;;;;;4925050;29;20051;-77
2023/03/04 10:17:54;;;;;;;12.63;1.38;;;;;;;;;;4922197;29;20380;-77
2023/03/04 10:20:22;;;;;;;11.73;1.38;;;;;;;;;;4907465;29;20047;-76
2023/03/04 10:22:50;;;;;;;9.82;1.20;;;;;;;;;;4919957;29;20054;-76
2023/03/04 10:25:21;;;;;;;9.18;1.00;;;;;;;;;;4922242;29;20054;-76
2023/03/04 10:27:50;;;;;;;8.27;1.33;;;;;;;;;;4908852;29;20062;-77
2023/03/04 10:30:27;;;;;;;10.73;1.92;;;;;;;;;;4926951;28;20060;-78
2023/03/04 10:32:54;;;;;;;12.57;2.42;;;;;;;;;;4922134;29;20052;-77
2023/03/04 10:35:22;;;;;;;17.92;2.55;;;;;;;;;;4924374;29;20047;-77
2023/03/04 10:37:50;;;;;;;10.45;2.28;;;;;;;;;;4939854;28;20043;-77
2023/03/04 10:40:21;;;;;;;17.73;2.35;;;;;;;;;;4924323;29;20883;-78
2023/03/04 10:42:49;;;;;;;11.10;1.88;;;;;;;;;;4923608;29;20064;-78
2023/03/04 10:45:21;;;;;;;15.45;2.00;;;;;;;;;;4937997;28;20136;-78
2023/03/04 10:47:52;;;;;;;13.48;3.63;;;;;;;;;;4923535;29;20043;-79
2023/03/04 10:50:25;;;;;;;17.42;3.45;;;;;;;;;;4923735;29;20058;-78
2023/03/04 10:52:54;;;;;;;10.18;1.42;;;;;;;;;;4934454;28;20091;-76
2023/03/04 10:55:23;;;;;;;12.55;2.20;;;;;;;;;;4938382;28;20079;-72
2023/03/04 10:57:54;;;;;;;21.65;3.25;;;;;;;;;;4922870;29;20764;-73
2023/03/04 11:00:26;;;;;;;17.88;2.92;;;;;;;;;;4922194;29;20633;-73
2023/03/04 11:02:53;;;;;;;12.13;2.13;;;;;;;;;;4923950;29;20051;-76
2023/03/04 11:05:25;;;;;;;14.85;2.15;;;;;;;;;;4922747;29;20083;-75
2023/03/04 11:07:52;;;;;;;17.38;3.03;;;;;;;;;;4938259;28;20091;-75
2023/03/04 11:10:22;;;;;;;19.70;2.90;;;;;;;;;;4925238;29;20051;-75
2023/03/04 11:12:50;;;;;;;22.10;2.92;;;;;;;;;;4924076;29;20043;-75
2023/03/04 11:15:26;;;;;;;20.25;3.40;;;;;;;;;;4922294;29;20139;-75
2023/03/04 11:17:55;;;;;;;21.65;2.40;;;;;;;;;;4939267;28;20075;-80
2023/03/04 11:20:32;;;;;;;19.40;3.58;;;;;;;;;;4923777;29;20040;-76
2023/03/04 11:23:02;;;;;;;23.83;3.70;;;;;;;;;;4925424;29;20146;-75
2023/03/04 11:25:31;;;;;;;15.73;3.05;;;;;;;;;;4928139;29;20052;-75
2023/03/04 11:27:59;;;;;;;17.02;2.58;;;;;;;;;;4926754;29;20047;-75
2023/03/04 11:30:33;;;;;;;16.95;4.00;;;;;;;;;;4919787;28;20143;-77
2023/03/04 11:33:06;;;;;;;20.90;3.05;;;;;;;;;;4891897;29;20067;-77
2023/03/04 11:35:38;;;;;;;18.33;4.60;;;;;;;;;;4904588;29;20044;-77
2023/03/04 11:38:09;;;;;;;23.50;2.90;;;;;;;;;;4907281;29;20059;-76
2023/03/04 11:40:40;;;;;;;21.45;2.22;;;;;;;;;;4894590;29;20161;-77
2023/03/04 11:43:11;;;;;;;13.23;2.05;;;;;;;;;;4893493;29;20047;-76
2023/03/04 11:45:48;;;;;;;16.20;2.40;;;;;;;;;;4911522;29;20070;-76
2023/03/04 11:48:28;;;;;;;16.67;3.22;;;;;;;;;;4909072;29;20055;-76
2023/03/04 11:50:57;;;;;;;12.75;2.60;;;;;;;;;;4905605;29;20056;-75
2023/03/04 11:53:28;;;;;;;13.85;2.83;;;;;;;;;;4915820;29;20044;-77
2023/03/04 11:56:10;;;;;;;17.27;3.30;;;;;;;;;;4913401;29;20048;-77
2023/03/04 11:58:51;;;;;;;15.32;2.42;;;;;;;;;;4898041;29;20048;-78
2023/03/04 12:01:17;;;;;;;12.45;3.20;;;;;;;;;;4893394;29;20140;-79
2023/03/04 12:04:06;;;;;;;18.15;3.00;;;;;;;;;;4912496;29;20079;-77
2023/03/04 12:06:37;;;;;;;17.08;3.08;;;;;;;;;;4896041;29;20063;-77
2023/03/04 12:09:07;;;;;;;25.13;3.72;;;;;;;;;;4911189;29;20045;-77
2023/03/04 12:11:42;;;;;;;12.68;2.65;;;;;;;;;;4909636;29;20052;-76
2023/03/04 12:14:09;;;;;;;20.85;3.25;;;;;;;;;;4907458;29;20071;-76
2023/03/04 12:16:36;;;;;;;19.02;3.15;;;;;;;;;;4910902;29;20044;-77
2023/03/04 12:19:10;;;;;;;13.13;2.65;;;;;;;;;;4896651;29;20159;-77
2023/03/04 12:21:46;;;;;;;16.10;2.28;;;;;;;;;;4906601;29;20055;-77
2023/03/04 12:24:16;;;;;;;10.23;1.73;;;;;;;;;;4910275;29;20054;-77
2023/03/04 12:26:49;;;;;;;9.25;1.58;;;;;;;;;;4894675;29;20047;-78
2023/03/04 12:29:15;;;;;;;16.38;3.45;;;;;;;;;;4897439;29;20095;-78
2023/03/04 12:31:43;;;;;;;14.13;2.13;;;;;;;;;;4928561;29;21700;-77
2023/03/04 12:34:26;;;;;;;14.98;2.20;;;;;;;;;;4927467;29;20188;-78
2023/03/04 12:36:53;;;;;;;16.67;2.67;;;;;;;;;;4927134;29;20043;-77
2023/03/04 12:39:24;;;;;;;15.63;2.72;;;;;;;;;;4928146;29;20065;-77
2023/03/04 12:42:15;;;;;;;16.38;2.83;;;;;;;;;;4930221;29;20070;-78
2023/03/04 12:44:46;;;;;;;16.05;2.72;;;;;;;;;;4929972;29;20645;-76
2023/03/04 12:47:18;;;;;;;13.02;2.63;;;;;;;;;;4923374;29;20040;-75
2023/03/04 12:49:46;;;;;;;12.23;2.63;;;;;;;;;;4928137;29;20130;-75
2023/03/04 12:52:24;;;;;;;18.98;3.40;;;;;;;;;;4931197;29;20091;-75
2023/03/04 12:54:55;;;;;;;15.60;2.92;;;;;;;;;;4930954;29;20039;-76
2023/03/04 12:57:24;;;;;;;22.30;5.50;;;;;;;;;;4932648;29;20051;-76
2023/03/04 12:59:56;;;;;;;19.10;3.22;;;;;;;;;;4926832;29;20080;-75
2023/03/04 13:02:25;;;;;;;22.77;3.13;;;;;;;;;;4912221;29;20130;-76
2023/03/04 13:05:06;;;;;;;16.33;4.15;;;;;;;;;;4926751;29;20047;-76
2023/03/04 13:07:37;;;;;;;14.45;2.53;;;;;;;;;;4928724;29;20040;-76
2023/03/04 13:10:08;;;;;;;22.95;3.47;;;;;;;;;;4925654;29;20044;-76
2023/03/04 13:12:49;;;;;;;14.70;2.92;;;;;;;;;;4904257;29;20044;-76
2023/03/04 13:15:18;;;;;;;16.95;2.90;;;;;;;;;;4907809;29;20138;-76
2023/03/04 13:17:51;;;;;;;14.38;2.45;;;;;;;;;;4925422;29;20130;-76
2023/03/04 13:20:19;;;;;;;17.17;3.53;;;;;;;;;;4907763;29;20480;-77
2023/03/04 13:22:51;;;;;;;17.35;3.97;;;;;;;;;;4922387;29;20042;-77
2023/03/04 13:25:31;;;;;;;17.92;2.08;;;;;;;;;;4918714;29;20194;-77
2023/03/04 13:28:01;;;;;;;16.83;2.83;;;;;;;;;;4925488;29;20056;-77
2023/03/04 13:30:30;;;;;;;15.85;3.25;;;;;;;;;;4925271;29;20456;-77
2023/03/04 13:32:58;;;;;;;12.68;2.08;;;;;;;;;;4923102;29;20067;-77
2023/03/04 13:35:43;;;;;;;10.52;2.13;;;;;;;;;;4908092;29;20040;-77
2023/03/04 13:38:20;;;;;;;11.70;3.20;;;;;;;;;;4925910;29;20536;-76
2023/03/04 13:41:05;;;;;;;12.57;2.63;;;;;;;;;;4925670;29;20615;-77
2023/03/04 13:43:38;;;;;;;14.45;1.92;;;;;;;;;;4924126;29;20078;-77
2023/03/04 13:46:18;;;;;;;14.38;2.17;;;;;;;;;;4911609;29;20459;-76
2023/03/04 13:48:50;;;;;;;10.82;2.20;;;;;;;;;;4924171;29;20186;-76
2023/03/04 13:51:16;;;;;;;14.23;2.13;;;;;;;;;;4925692;29;20122;-76
2023/03/04 13:53:43;;;;;;;10.50;2.67;;;;;;;;;;4910215;29;20052;-77
2023/03/04 13:56:12;;;;;;;20.63;2.88;;;;;;;;;;4926640;29;20050;-79
2023/03/04 13:58:39;;;;;;;14.10;2.60;;;;;;;;;;4924727;29;20055;-76
2023/03/04 14:01:06;;;;;;;13.35;2.40;;;;;;;;;;4926016;29;20407;-76
2023/03/04 14:03:35;;;;;;;18.45;3.28;;;;;;;;;;4924110;29;20080;-76
2023/03/04 14:06:08;;;;;;;15.80;3.15;;;;;;;;;;4925106;29;20851;-76
2023/03/04 14:08:35;;;;;;;19.95;2.67;;;;;;;;;;4912230;29;20050;-77
2023/03/04 14:11:01;;;;;;;15.55;3.65;;;;;;;;;;4910306;29;20060;-76
2023/03/04 14:13:27;;;;;;;16.13;2.13;;;;;;;;;;4925626;29;20090;-77
2023/03/04 14:15:55;;;;;;;14.65;3.08;;;;;;;;;;4911917;29;20182;-76
2023/03/04 14:18:23;;;;;;;16.80;3.10;;;;;;;;;;4926128;29;20117;-75
2023/03/04 14:20:50;;;;;;;17.38;3.15;;;;;;;;;;4926904;29;20044;-75
2023/03/04 14:23:25;;;;;;;14.63;2.50;;;;;;;;;;4923125;29;20119;-76
2023/03/04 14:25:51;;;;;;;14.52;2.75;;;;;;;;;;4925599;29;20129;-76
2023/03/04 14:28:18;;;;;;;22.30;4.07;;;;;;;;;;4912337;29;20047;-77
2023/03/04 14:30:52;;;;;;;32.42;6.63;;;;;;;;;;4922066;29;20086;-76
2023/03/04 14:33:20;;;;;;;22.25;3.85;;;;;;;;;;4925235;29;20082;-76
2023/03/04 14:35:47;;;;;;;14.43;2.65;;;;;;;;;;4923418;29;20055;-75